createdAt,value
2022-08-22T00:00:53.832Z,5.18
2022-08-22T00:03:02.937Z,2.20
2022-08-22T00:03:29.673Z,5.10
2022-08-22T00:06:04.945Z,4.63
2022-08-22T00:08:39.036Z,4.57
2022-08-22T00:11:09.769Z,4.70
2022-08-22T00:13:40.161Z,4.43
2022-08-22T00:16:09.943Z,4.63
2022-08-22T00:18:39.179Z,4.53
2022-08-22T00:21:10.167Z,5.00
2022-08-22T00:23:41.470Z,4.43
2022-08-22T00:26:15.405Z,4.75
2022-08-22T00:28:47.951Z,4.50
2022-08-22T00:31:19.485Z,4.28
2022-08-22T00:33:49.625Z,4.65
2022-08-22T00:36:20.436Z,4.25
2022-08-22T00:38:53.191Z,4.40
2022-08-22T00:41:30.072Z,4.20
2022-08-22T00:44:08.747Z,4.55
2022-08-22T00:46:49.083Z,4.40
2022-08-22T00:49:22.779Z,4.70
2022-08-22T00:52:02.435Z,4.57
2022-08-22T00:54:39.552Z,4.43
2022-08-22T00:57:28.068Z,4.20
2022-08-22T01:00:13.366Z,4.43
2022-08-22T01:02:51.840Z,4.40
2022-08-22T01:05:36.352Z,4.07
2022-08-22T01:08:15.756Z,4.07
2022-08-22T01:10:52.776Z,3.88
2022-08-22T01:13:31.788Z,3.85
2022-08-22T01:16:06.612Z,4.30
2022-08-22T01:18:44.989Z,4.60
2022-08-22T01:21:32.892Z,4.60
2022-08-22T01:24:11.135Z,5.05
2022-08-22T01:27:03.583Z,4.45
2022-08-22T01:29:54.937Z,4.10
2022-08-22T01:32:48.799Z,4.80
2022-08-22T01:35:42.125Z,5.40
2022-08-22T01:38:24.535Z,5.50
2022-08-22T01:41:13.205Z,4.90
2022-08-22T01:43:58.703Z,5.00
2022-08-22T01:46:32.393Z,4.40
2022-08-22T01:49:05.810Z,4.85
2022-08-22T01:51:39.129Z,4.10
2022-08-22T01:54:09.376Z,4.03
2022-08-22T01:56:41.153Z,4.10
2022-08-22T01:59:11.047Z,3.90
2022-08-22T02:01:48.890Z,3.67
2022-08-22T02:04:18.505Z,4.03
2022-08-22T02:06:48.517Z,4.20
2022-08-22T02:09:24.195Z,3.90
2022-08-22T02:11:55.489Z,3.80
2022-08-22T02:14:30.570Z,3.75
2022-08-22T02:16:59.840Z,3.63
2022-08-22T02:19:30.447Z,3.70
2022-08-22T02:22:00.768Z,4.00
2022-08-22T02:24:30.255Z,4.10
2022-08-22T02:27:08.245Z,3.80
2022-08-22T02:29:41.544Z,3.90
2022-08-22T02:32:11.232Z,3.70
2022-08-22T02:34:40.586Z,3.90
2022-08-22T02:37:12.701Z,3.47
2022-08-22T02:39:43.053Z,3.70
2022-08-22T02:42:17.090Z,3.53
2022-08-22T02:44:51.939Z,3.73
2022-08-22T02:47:24.749Z,3.57
2022-08-22T02:49:56.191Z,3.73
2022-08-22T02:52:27.213Z,4.03
2022-08-22T02:54:57.378Z,4.43
2022-08-22T02:57:31.404Z,5.15
2022-08-22T03:00:32.277Z,5.32
2022-08-22T03:03:02.283Z,4.88
2022-08-22T03:05:30.764Z,4.80
2022-08-22T03:08:03.361Z,4.60
2022-08-22T03:10:38.003Z,4.30
2022-08-22T03:13:11.866Z,4.20
2022-08-22T03:15:48.481Z,4.20
2022-08-22T03:18:19.643Z,4.80
2022-08-22T03:20:48.803Z,5.07
2022-08-22T03:23:25.273Z,4.57
2022-08-22T03:25:56.675Z,4.90
2022-08-22T03:28:28.001Z,4.60
2022-08-22T03:31:00.328Z,5.15
2022-08-22T03:33:28.836Z,5.63
2022-08-22T03:35:59.651Z,5.30
2022-08-22T03:38:29.909Z,5.05
2022-08-22T03:41:16.395Z,5.00
2022-08-22T03:44:02.896Z,4.90
2022-08-22T03:46:41.832Z,5.15
2022-08-22T03:49:20.864Z,5.22
2022-08-22T03:51:58.793Z,4.93
2022-08-22T03:54:44.790Z,5.05
2022-08-22T03:57:34.483Z,5.05
2022-08-22T04:00:18.340Z,5.10
2022-08-22T04:03:09.929Z,5.47
2022-08-22T04:05:47.852Z,5.13
2022-08-22T04:08:31.774Z,5.43
2022-08-22T04:11:16.835Z,5.70
2022-08-22T04:13:55.024Z,5.72
2022-08-22T04:16:37.344Z,6.07
2022-08-22T04:19:11.664Z,5.82
2022-08-22T04:21:43.395Z,5.75
2022-08-22T04:24:30.043Z,6.05
2022-08-22T04:26:59.249Z,5.33
2022-08-22T04:29:29.333Z,6.20
2022-08-22T04:32:01.745Z,5.55
2022-08-22T04:34:36.050Z,5.70
2022-08-22T04:37:07.668Z,5.40
2022-08-22T04:39:38.759Z,5.68
2022-08-22T04:42:31.220Z,5.57
2022-08-22T04:45:01.916Z,5.40
2022-08-22T04:47:32.028Z,5.43
2022-08-22T04:50:04.235Z,6.05
2022-08-22T04:52:37.454Z,6.40
2022-08-22T04:55:10.917Z,5.90
2022-08-22T04:57:46.654Z,7.35
2022-08-22T05:00:15.939Z,6.28
2022-08-22T05:02:48.328Z,5.95
2022-08-22T05:05:20.344Z,5.32
2022-08-22T05:07:49.955Z,5.10
2022-08-22T05:10:19.607Z,5.00
2022-08-22T05:12:49.736Z,5.28
2022-08-22T05:15:23.115Z,5.03
2022-08-22T05:17:52.322Z,5.03
2022-08-22T05:20:23.092Z,4.97
2022-08-22T05:22:52.447Z,4.70
2022-08-22T05:25:22.820Z,4.93
2022-08-22T05:27:53.293Z,4.78
2022-08-22T05:30:25.557Z,5.10
2022-08-22T05:33:03.767Z,4.63
2022-08-22T05:35:35.021Z,4.80
2022-08-22T05:38:03.507Z,5.10
2022-08-22T05:40:33.164Z,5.10
2022-08-22T05:43:00.725Z,4.75
2022-08-22T05:45:29.103Z,5.30
2022-08-22T05:47:58.924Z,5.47
2022-08-22T05:50:32.196Z,5.50
2022-08-22T05:53:03.604Z,5.50
2022-08-22T05:55:33.060Z,5.13
2022-08-22T05:58:11.396Z,4.93
2022-08-22T06:00:40.973Z,5.22
2022-08-22T06:03:14.418Z,5.70
2022-08-22T06:05:43.869Z,5.35
2022-08-22T06:08:18.269Z,4.75
2022-08-22T06:10:48.234Z,5.10
2022-08-22T06:13:21.983Z,5.20
2022-08-22T06:15:54.403Z,5.05
2022-08-22T06:18:23.520Z,4.80
2022-08-22T06:20:53.396Z,4.85
2022-08-22T06:23:24.485Z,4.68
2022-08-22T06:25:52.823Z,5.22
2022-08-22T06:28:21.531Z,4.50
2022-08-22T06:30:50.479Z,4.45
2022-08-22T06:33:22.498Z,3.83
2022-08-22T06:36:20.546Z,3.65
2022-08-22T06:38:58.798Z,3.45
2022-08-22T06:41:27.935Z,3.60
2022-08-22T06:43:56.328Z,3.78
2022-08-22T06:46:26.892Z,3.40
2022-08-22T06:48:55.579Z,3.17
2022-08-22T06:51:24.909Z,2.90
2022-08-22T06:53:53.702Z,3.50
2022-08-22T06:56:24.701Z,2.90
2022-08-22T06:58:55.446Z,2.50
2022-08-22T07:01:24.218Z,2.80
2022-08-22T07:03:52.785Z,2.85
2022-08-22T07:06:22.582Z,3.00
2022-08-22T07:08:53.696Z,2.60
2022-08-22T07:11:25.595Z,2.60
2022-08-22T07:13:55.063Z,2.37
2022-08-22T07:16:28.977Z,2.70
2022-08-22T07:18:56.400Z,2.25
2022-08-22T07:21:24.980Z,2.22
2022-08-22T07:23:52.913Z,2.00
2022-08-22T07:26:28.069Z,2.20
2022-08-22T07:28:58.704Z,2.25
2022-08-22T07:31:38.878Z,2.60
2022-08-22T07:34:18.943Z,2.20
2022-08-22T07:36:48.745Z,2.10
2022-08-22T07:39:23.677Z,2.50
2022-08-22T07:41:59.584Z,2.60
2022-08-22T07:44:32.180Z,2.08
2022-08-22T07:47:01.368Z,2.42
2022-08-22T07:49:31.249Z,2.22
2022-08-22T07:51:59.575Z,2.10
2022-08-22T07:54:29.686Z,2.40
2022-08-22T07:57:02.278Z,2.30
2022-08-22T07:59:30.560Z,2.25
2022-08-22T08:01:59.507Z,2.25
2022-08-22T08:04:29.836Z,2.47
2022-08-22T08:07:00.302Z,2.10
2022-08-22T08:09:29.448Z,2.20
2022-08-22T08:11:59.450Z,2.00
2022-08-22T08:14:27.197Z,2.03
2022-08-22T08:16:56.022Z,1.85
2022-08-22T08:19:24.922Z,2.35
2022-08-22T08:21:53.442Z,2.30
2022-08-22T08:24:23.307Z,2.00
2022-08-22T08:27:06.832Z,2.00
2022-08-22T08:29:36.285Z,2.30
2022-08-22T08:32:07.075Z,2.13
2022-08-22T08:34:35.430Z,2.13
2022-08-22T08:37:05.729Z,1.80
2022-08-22T08:39:35.747Z,2.20
2022-08-22T08:42:09.615Z,2.25
2022-08-22T08:44:47.601Z,2.25
2022-08-22T08:47:21.652Z,2.00
2022-08-22T08:49:57.762Z,2.00
2022-08-22T08:52:40.394Z,2.20
2022-08-22T08:55:21.997Z,1.75
2022-08-22T08:58:06.775Z,1.83
2022-08-22T09:00:49.567Z,1.70
2022-08-22T09:03:30.929Z,2.10
2022-08-22T09:06:07.104Z,2.10
2022-08-22T09:11:58.437Z,2.22
2022-08-22T09:14:34.183Z,2.08
2022-08-22T09:17:16.483Z,1.67
2022-08-22T09:20:02.733Z,1.80
2022-08-22T09:23:05.803Z,1.80
2022-08-22T09:25:42.621Z,1.70
2022-08-22T09:28:13.725Z,1.88
2022-08-22T09:30:56.379Z,1.90
2022-08-22T09:33:28.285Z,1.95
2022-08-22T09:36:00.956Z,1.83
2022-08-22T09:38:48.002Z,1.80
2022-08-22T09:41:25.262Z,1.98
2022-08-22T09:43:58.789Z,1.80
2022-08-22T09:46:32.159Z,1.60
2022-08-22T09:49:07.308Z,1.65
2022-08-22T09:51:40.632Z,1.70
2022-08-22T09:54:15.045Z,1.70
2022-08-22T09:56:49.428Z,1.60
2022-08-22T09:59:22.845Z,1.40
2022-08-22T10:01:54.866Z,1.50
2022-08-22T10:04:31.569Z,1.70
2022-08-22T10:07:02.888Z,1.90
2022-08-22T10:09:34.554Z,1.40
2022-08-22T10:12:06.903Z,2.03
2022-08-22T10:14:50.435Z,1.50
2022-08-22T10:17:21.730Z,1.70
2022-08-22T10:19:51.455Z,1.97
2022-08-22T10:22:29.781Z,1.38
2022-08-22T10:25:08.414Z,1.80
2022-08-22T10:27:56.481Z,1.65
2022-08-22T10:30:27.597Z,1.77
2022-08-22T10:33:01.397Z,1.67
2022-08-22T10:35:33.769Z,1.75
2022-08-22T10:38:04.771Z,1.50
2022-08-22T10:40:36.085Z,1.80
2022-08-22T10:43:10.665Z,1.80
2022-08-22T10:45:41.253Z,2.13
2022-08-22T10:48:30.011Z,1.67
2022-08-22T10:51:02.591Z,1.60
2022-08-22T10:53:34.736Z,1.73
2022-08-22T10:56:09.536Z,1.70
2022-08-22T10:58:41.836Z,1.57
2022-08-22T11:01:37.236Z,1.58
2022-08-22T11:04:05.427Z,1.77
2022-08-22T11:06:38.761Z,1.75
2022-08-22T11:09:14.457Z,1.80
2022-08-22T11:11:48.399Z,1.60
2022-08-22T11:14:26.269Z,2.50
2022-08-22T11:16:58.964Z,1.93
2022-08-22T11:19:44.793Z,1.92
2022-08-22T11:22:18.884Z,1.85
2022-08-22T11:25:06.623Z,1.80
2022-08-22T11:27:43.428Z,2.03
2022-08-22T11:30:18.570Z,2.30
2022-08-22T11:33:06.883Z,1.80
2022-08-22T11:35:39.248Z,2.08
2022-08-22T11:38:11.214Z,2.00
2022-08-22T11:40:41.808Z,2.35
2022-08-22T11:43:23.133Z,2.15
2022-08-22T11:45:53.259Z,1.90
2022-08-22T11:48:24.793Z,2.15
2022-08-22T11:50:55.548Z,2.28
2022-08-22T11:53:26.635Z,2.35
2022-08-22T11:55:59.334Z,2.15
2022-08-22T11:58:32.618Z,2.10
2022-08-22T12:01:03.419Z,2.27
2022-08-22T12:03:46.905Z,2.15
2022-08-22T12:06:34.529Z,1.73
2022-08-22T12:09:20.106Z,1.90
2022-08-22T12:11:52.169Z,2.70
2022-08-22T12:14:26.922Z,2.28
2022-08-22T12:17:01.506Z,2.15
2022-08-22T12:19:42.034Z,1.85
2022-08-22T12:22:34.987Z,2.25
2022-08-22T12:25:08.016Z,2.20
2022-08-22T12:27:49.713Z,2.50
2022-08-22T12:30:22.579Z,2.17
2022-08-22T12:33:09.714Z,2.10
2022-08-22T12:35:44.945Z,2.10
2022-08-22T12:38:29.742Z,2.10
2022-08-22T12:41:07.955Z,2.17
2022-08-22T12:51:19.328Z,1.50
2022-08-22T12:53:53.680Z,1.67
2022-08-22T13:03:48.009Z,2.20
2022-08-22T13:06:34.601Z,1.58
2022-08-22T13:09:05.036Z,2.05
2022-08-22T13:11:38.164Z,2.00
2022-08-22T13:56:57.354Z,2.03
2022-08-22T13:59:49.479Z,2.25
2022-08-22T14:02:19.623Z,1.50
2022-08-22T14:04:52.396Z,1.63
2022-08-22T14:07:24.668Z,1.70
2022-08-22T14:32:35.059Z,1.35
2022-08-22T15:17:38.400Z,1.63
2022-08-22T15:30:00.508Z,1.40
2022-08-22T16:12:25.476Z,1.58
2022-08-22T16:14:53.483Z,1.60
2022-08-22T16:17:38.584Z,1.60
2022-08-22T16:22:48.139Z,2.10
2022-08-22T16:25:16.827Z,1.73
2022-08-22T16:27:57.382Z,1.80
2022-08-22T16:30:33.140Z,1.60
2022-08-22T16:33:00.579Z,1.80
2022-08-22T16:35:46.674Z,1.83
2022-08-22T16:38:22.777Z,1.95
2022-08-22T16:40:50.214Z,1.63
2022-08-22T16:43:20.113Z,1.95
2022-08-22T16:45:48.642Z,1.83
2022-08-22T16:50:43.438Z,2.00
2022-08-22T16:53:13.689Z,1.60
2022-08-22T16:55:45.997Z,2.05
2022-08-22T16:58:44.965Z,1.50
2022-08-22T17:01:20.645Z,1.48
2022-08-22T17:03:54.452Z,1.80
2022-08-22T17:06:32.298Z,1.67
2022-08-22T17:09:09.333Z,1.60
2022-08-22T17:11:40.710Z,1.98
2022-08-22T17:14:17.889Z,1.60
2022-08-22T17:16:59.083Z,2.40
2022-08-22T17:19:35.320Z,1.55
2022-08-22T17:22:05.546Z,1.50
2022-08-22T17:24:35.731Z,1.73
2022-08-22T17:27:06.908Z,2.20
2022-08-22T17:29:49.225Z,1.80
2022-08-22T17:44:40.116Z,1.92
2022-08-22T17:47:09.257Z,1.88
2022-08-22T17:49:48.819Z,2.30
2022-08-22T17:52:19.784Z,2.40
2022-08-22T17:54:49.107Z,2.60
2022-08-22T17:57:25.693Z,2.28
2022-08-22T17:59:56.950Z,2.50
2022-08-22T18:02:26.454Z,2.40
2022-08-22T18:05:01.861Z,2.40
2022-08-22T18:07:50.367Z,2.83
2022-08-22T18:10:21.345Z,2.40
2022-08-22T18:12:54.881Z,2.63
2022-08-22T18:15:26.176Z,2.50
2022-08-22T18:17:56.691Z,1.95
2022-08-22T18:30:18.199Z,1.95
2022-08-22T18:32:52.378Z,2.05
2022-08-22T18:35:21.963Z,2.08
2022-08-22T18:37:52.936Z,2.00
2022-08-22T18:40:26.242Z,2.47
2022-08-22T18:42:55.697Z,2.10
2022-08-22T18:45:43.769Z,2.40
2022-08-22T18:53:27.729Z,1.88
2022-08-22T18:55:57.813Z,2.00
2022-08-22T18:58:33.258Z,2.10
2022-08-22T19:01:23.393Z,2.55
